Time;durP1;ratioP1;P1;durP2;ratioP2;P2;SDS_P1;SDS_P2;PMS_P1;PMS_P2;Temp;Humidity;BMP_temperature;BMP_pressure;BME280_temperature;BME280_humidity;BME280_pressure;Samples;Min_cycle;Max_cycle;Signal;HPM_P1;HPM_P2
2024/01/30 00:00:01;;;;;;;0.60;0.60;;;;;;;6.07;64.24;98094.75;29395;241;63009;-57
2024/01/30 00:00:32;;;;;;;0.60;0.60;;;;;;;6.07;64.48;98100.16;29395;227;63005;-57
2024/01/30 00:01:04;;;;;;;0.60;0.60;;;;;;;6.06;64.33;98099.34;29395;222;63014;-57
2024/01/30 00:01:35;;;;;;;6.82;6.37;;;;;;;6.05;64.55;98098.50;29395;203;63005;-57
2024/01/30 00:02:06;;;;;;;0.60;0.60;;;;;;;6.06;64.42;98096.63;29395;251;63009;-56
2024/01/30 00:02:38;;;;;;;0.60;0.60;;;;;;;6.05;64.40;98092.31;29394;235;64005;-57
2024/01/30 00:03:10;;;;;;;0.60;0.60;;;;;;;6.03;64.71;98092.53;29395;215;63019;-63
2024/01/30 00:03:41;;;;;;;0.60;0.60;;;;;;;6.01;64.97;98091.94;29395;221;63007;-56
2024/01/30 00:04:12;;;;;;;0.60;0.60;;;;;;;6.00;64.90;98098.38;29395;214;63009;-57
2024/01/30 00:04:44;;;;;;;0.57;0.57;;;;;;;5.99;64.94;98095.94;29395;258;63004;-56
2024/01/30 00:05:15;;;;;;;0.60;0.60;;;;;;;5.97;65.52;98090.78;29395;292;63008;-57
2024/01/30 00:05:47;;;;;;;0.60;0.60;;;;;;;5.95;64.98;98098.25;29395;207;63004;-63
2024/01/30 00:06:24;;;;;;;0.50;0.50;;;;;;;5.93;65.82;98094.97;29395;220;63027;-58
2024/01/30 00:06:59;;;;;;;0.60;0.60;;;;;;;5.92;65.97;98103.28;29395;321;63005;-57
2024/01/30 00:07:30;;;;;;;0.60;0.60;;;;;;;5.88;65.95;98096.72;29395;227;63025;-57
2024/01/30 00:08:01;;;;;;;0.60;0.60;;;;;;;5.86;65.56;98099.66;29394;231;64005;-57
2024/01/30 00:08:32;;;;;;;0.60;0.60;;;;;;;5.85;66.59;98098.00;29395;237;63008;-57
2024/01/30 00:09:05;;;;;;;0.60;0.60;;;;;;;5.82;66.77;98109.25;29395;216;63005;-57
2024/01/30 00:09:41;;;;;;;0.60;0.60;;;;;;;5.80;66.19;98103.28;29395;226;63009;-57
2024/01/30 00:10:12;;;;;;;0.50;0.50;;;;;;;5.79;66.87;98104.31;29395;236;63005;-57
2024/01/30 00:10:44;;;;;;;0.60;0.60;;;;;;;5.76;66.60;98099.41;29395;270;63009;-57
2024/01/30 00:11:16;;;;;;;0.60;0.60;;;;;;;5.75;66.72;98103.16;29394;197;64004;-56
2024/01/30 00:11:47;;;;;;;0.60;0.60;;;;;;;5.74;66.63;98106.91;29395;220;63015;-56
2024/01/30 00:12:18;;;;;;;0.60;0.60;;;;;;;5.72;66.85;98103.59;29395;224;63004;-56
2024/01/30 00:12:50;;;;;;;0.60;0.60;;;;;;;5.71;66.71;98101.97;29395;291;63008;-57
2024/01/30 00:13:22;;;;;;;0.60;0.60;;;;;;;5.69;66.90;98104.06;29394;251;64004;-57
2024/01/30 00:13:54;;;;;;;0.60;0.60;;;;;;;5.68;66.92;98107.81;29395;237;63009;-57
2024/01/30 00:14:26;;;;;;;0.50;0.50;;;;;;;5.67;66.84;98100.78;29395;204;63005;-56
2024/01/30 00:14:57;;;;;;;0.60;0.60;;;;;;;5.66;66.85;98104.53;29395;212;63009;-57
2024/01/30 00:15:29;;;;;;;0.50;0.50;;;;;;;5.65;66.75;98102.87;29395;222;63005;-57
2024/01/30 00:16:00;;;;;;;0.60;0.60;;;;;;;5.65;66.95;98108.28;29395;274;63009;-57
2024/01/30 00:16:31;;;;;;;0.60;0.60;;;;;;;5.64;66.97;98101.25;29395;260;63005;-57
2024/01/30 00:17:04;;;;;;;0.60;0.60;;;;;;;5.65;66.96;98102.87;29395;198;63009;-57
2024/01/30 00:17:36;;;;;;;0.60;0.60;;;;;;;5.65;67.08;98108.28;29395;207;63005;-57
2024/01/30 00:18:08;;;;;;;0.60;0.60;;;;;;;5.63;67.10;98110.37;29394;281;64009;-56
2024/01/30 00:18:39;;;;;;;0.60;0.60;;;;;;;5.61;66.94;98101.72;29395;281;63004;-57
2024/01/30 00:19:10;;;;;;;0.60;0.60;;;;;;;5.62;66.85;98100.66;29395;211;63009;-57
2024/01/30 00:19:41;;;;;;;0.60;0.60;;;;;;;5.62;67.07;98100.66;29395;204;63004;-57
2024/01/30 00:20:13;;;;;;;0.50;0.50;;;;;;;5.61;67.01;98101.72;29395;205;63004;-58
2024/01/30 00:20:44;;;;;;;0.60;0.60;;;;;;;5.60;66.92;98103.59;29395;210;63004;-63
2024/01/30 00:21:15;;;;;;;0.60;0.60;;;;;;;5.60;67.44;98103.59;29395;202;63009;-56
2024/01/30 00:21:47;;;;;;;0.50;0.50;;;;;;;5.58;67.59;98102.16;29395;202;63005;-56
2024/01/30 00:22:18;;;;;;;0.50;0.50;;;;;;;5.58;67.10;98100.28;29395;215;63009;-57
2024/01/30 00:22:49;;;;;;;0.60;0.60;;;;;;;5.58;67.14;98105.69;29395;277;63005;-56
2024/01/30 00:23:21;;;;;;;0.60;0.60;;;;;;;5.59;66.76;98101.94;29394;200;64009;-57
2024/01/30 00:23:52;;;;;;;0.60;0.60;;;;;;;5.58;67.34;98100.28;29395;245;63005;-56
2024/01/30 00:24:23;;;;;;;0.60;0.60;;;;;;;5.59;66.73;98098.44;29395;213;63026;-57
2024/01/30 00:24:56;;;;;;;0.60;0.60;;;;;;;5.59;67.25;98101.13;29395;224;63004;-56
2024/01/30 00:25:27;;;;;;;0.60;0.60;;;;;;;5.59;66.87;98103.81;29395;231;63009;-57
2024/01/30 00:26:00;;;;;;;0.60;0.60;;;;;;;5.59;67.18;98099.25;29395;217;63011;-57
2024/01/30 00:26:31;;;;;;;0.60;0.60;;;;;;;5.60;66.95;98100.06;29395;256;63009;-57
2024/01/30 00:27:05;;;;;;;0.57;0.57;;;;;;;5.60;67.00;98106.28;29394;212;64004;-57
2024/01/30 00:27:36;;;;;;;0.60;0.60;;;;;;;5.61;66.98;98101.72;29395;197;63008;-56
2024/01/30 00:28:07;;;;;;;0.57;0.57;;;;;;;5.61;67.10;98104.41;29395;223;63004;-57
2024/01/30 00:28:39;;;;;;;0.60;0.60;;;;;;;5.62;66.85;98103.34;29395;196;63008;-57
2024/01/30 00:29:10;;;;;;;0.60;0.60;;;;;;;5.62;67.07;98101.47;29395;202;63005;-57
2024/01/30 00:29:42;;;;;;;0.60;0.60;;;;;;;5.63;66.71;98105.00;29395;202;63009;-58
2024/01/30 00:30:14;;;;;;;0.55;0.55;;;;;;;5.64;66.94;98101.25;29395;197;63005;-57
2024/01/30 00:30:45;;;;;;;0.60;0.60;;;;;;;5.63;66.37;98103.13;29395;197;63009;-63
2024/01/30 00:31:16;;;;;;;0.60;0.60;;;;;;;5.64;66.51;98098.56;29395;197;63010;-56
2024/01/30 00:31:48;;;;;;;0.60;0.60;;;;;;;5.64;66.28;98101.25;29395;220;63009;-57
2024/01/30 00:32:23;;;;;;;0.50;0.50;;;;;;;5.66;66.40;98093.75;29394;273;64004;-57
2024/01/30 00:32:54;;;;;;;0.60;0.60;;;;;;;5.65;66.60;98092.94;29395;256;63009;-57
2024/01/30 00:33:25;;;;;;;0.57;0.57;;;;;;;5.67;66.80;98107.00;29395;207;63004;-58
2024/01/30 00:34:00;;;;;;;0.60;0.60;;;;;;;5.69;66.50;98104.06;29395;233;63014;-57
2024/01/30 00:34:32;;;;;;;0.60;0.60;;;;;;;5.70;66.95;98103.03;29395;204;63004;-57
2024/01/30 00:35:04;;;;;;;0.60;0.60;;;;;;;5.69;66.78;98104.91;29395;199;63008;-57
2024/01/30 00:35:36;;;;;;;0.60;0.60;;;;;;;5.69;66.51;98101.38;29395;242;63005;-56
2024/01/30 00:36:09;;;;;;;0.60;0.60;;;;;;;5.70;66.91;98105.72;29395;255;63009;-57
2024/01/30 00:36:40;;;;;;;0.60;0.60;;;;;;;5.70;66.93;98100.31;29395;210;63005;-57
2024/01/30 00:37:11;;;;;;;0.60;0.60;;;;;;;5.71;66.69;98104.66;29395;197;63009;-57
2024/01/30 00:37:43;;;;;;;0.60;0.60;;;;;;;5.69;66.48;98104.91;29394;216;64005;-57
2024/01/30 00:38:14;;;;;;;0.60;0.60;;;;;;;5.68;66.96;98103.25;29395;266;63009;-58
2024/01/30 00:38:45;;;;;;;0.60;0.60;;;;;;;5.67;66.61;98100.78;29395;256;63005;-56
2024/01/30 00:39:19;;;;;;;0.60;0.60;;;;;;;5.66;66.96;98105.34;29395;218;63009;-56
2024/01/30 00:39:51;;;;;;;0.60;0.60;;;;;;;5.66;67.01;98104.53;29395;285;63004;-56
2024/01/30 00:40:22;;;;;;;0.50;0.50;;;;;;;5.66;67.10;98101.84;29395;283;63009;-57
2024/01/30 00:40:53;;;;;;;0.60;0.60;;;;;;;5.64;67.62;98102.06;29395;268;63004;-57
2024/01/30 00:41:24;;;;;;;0.60;0.60;;;;;;;5.64;67.91;98106.62;29395;212;63009;-56
2024/01/30 00:41:55;;;;;;;0.60;0.60;;;;;;;5.61;67.59;98107.09;29395;212;63010;-57
2024/01/30 00:42:27;;;;;;;0.60;0.60;;;;;;;5.60;67.96;98105.44;29395;262;63008;-56
2024/01/30 00:43:00;;;;;;;0.60;0.60;;;;;;;5.57;68.30;98111.28;29394;198;64005;-57
2024/01/30 00:43:32;;;;;;;0.60;0.60;;;;;;;5.55;68.74;98113.41;29395;224;63009;-57
2024/01/30 00:44:04;;;;;;;0.60;0.60;;;;;;;5.52;68.89;98116.59;29395;219;63005;-56
2024/01/30 00:44:38;;;;;;;0.60;0.60;;;;;;;5.50;68.83;98110.59;29395;244;63009;-57
2024/01/30 00:45:16;;;;;;;0.60;0.60;;;;;;;5.49;68.81;98122.41;29395;211;63005;-57
2024/01/30 00:45:47;;;;;;;0.60;0.60;;;;;;;5.47;68.60;98109.19;29395;259;63009;-56
2024/01/30 00:46:19;;;;;;;0.60;0.60;;;;;;;5.49;68.67;98117.03;29394;269;64005;-57
2024/01/30 00:46:50;;;;;;;0.50;0.50;;;;;;;5.49;68.56;98117.03;29395;249;63009;-57
2024/01/30 00:47:21;;;;;;;0.60;0.60;;;;;;;5.50;68.78;98110.59;29395;279;63004;-56
2024/01/30 00:47:53;;;;;;;1.48;1.48;;;;;;;5.49;68.57;98109.78;29395;233;63009;-57
2024/01/30 00:48:24;;;;;;;0.60;0.60;;;;;;;5.48;68.71;98108.16;29395;297;63014;-63
2024/01/30 00:48:55;;;;;;;0.60;0.60;;;;;;;5.49;68.62;98103.56;29395;259;63025;-56
2024/01/30 00:49:26;;;;;;;0.60;0.60;;;;;;;5.49;69.65;98117.03;29395;306;63008;-57
2024/01/30 00:49:58;;;;;;;0.60;0.60;;;;;;;5.47;68.89;98116.44;29395;222;63008;-57
2024/01/30 00:50:29;;;;;;;0.60;0.60;;;;;;;5.47;68.70;98116.44;29395;203;63005;-57
2024/01/30 00:51:00;;;;;;;0.60;0.60;;;;;;;5.47;68.78;98113.75;29395;234;63009;-57
2024/01/30 00:51:32;;;;;;;0.60;0.60;;;;;;;5.48;68.88;98115.41;29394;223;64005;-57
2024/01/30 00:52:04;;;;;;;0.60;0.60;;;;;;;5.48;68.99;98112.69;29395;222;63009;-58
2024/01/30 00:52:35;;;;;;;0.60;0.60;;;;;;;5.46;68.82;98112.94;29395;216;63005;-58
2024/01/30 00:53:08;;;;;;;0.60;0.60;;;;;;;5.49;68.70;98117.03;29395;221;63026;-63
2024/01/30 00:53:41;;;;;;;0.60;0.60;;;;;;;5.48;68.72;98118.09;29395;247;63005;-57
2024/01/30 00:54:15;;;;;;;0.60;0.60;;;;;;;5.49;68.41;98111.66;29395;248;63009;-58
2024/01/30 00:54:46;;;;;;;0.60;0.60;;;;;;;5.49;69.00;98108.97;29395;203;63010;-57
2024/01/30 00:55:18;;;;;;;0.60;0.60;;;;;;;5.51;68.59;98114.94;29395;292;63009;-56
2024/01/30 00:55:50;;;;;;;0.60;0.60;;;;;;;5.50;68.54;98113.28;29395;229;63004;-56
2024/01/30 00:56:21;;;;;;;0.60;0.60;;;;;;;5.51;68.96;98109.56;29395;241;63009;-57
2024/01/30 00:56:52;;;;;;;0.60;0.60;;;;;;;5.51;68.42;98106.84;29394;306;64004;-57
2024/01/30 00:57:24;;;;;;;0.50;0.50;;;;;;;5.52;68.61;98108.50;29395;209;63008;-58
2024/01/30 00:57:55;;;;;;;0.60;0.60;;;;;;;5.52;68.57;98109.31;29395;256;63004;-56
2024/01/30 00:58:26;;;;;;;0.60;0.60;;;;;;;5.53;68.77;98108.28;29395;216;63009;-56
2024/01/30 00:58:57;;;;;;;0.60;0.60;;;;;;;5.52;68.71;98109.31;29395;308;63005;-61
2024/01/30 00:59:29;;;;;;;0.65;0.65;;;;;;;5.54;68.35;98101.03;29395;207;63009;-57
2024/01/30 01:00:00;;;;;;;0.60;0.60;;;;;;;5.54;68.50;98101.03;29395;254;63005;-57
2024/01/30 01:00:32;;;;;;;0.60;0.60;;;;;;;5.55;68.19;98099.94;29395;224;63009;-57
2024/01/30 01:01:04;;;;;;;0.60;0.60;;;;;;;5.56;68.14;98098.88;29395;267;63005;-57
2024/01/30 01:01:36;;;;;;;0.60;0.60;;;;;;;5.58;67.88;98102.16;29395;221;63009;-57
2024/01/30 01:02:09;;;;;;;0.60;0.60;;;;;;;5.59;67.71;98104.63;29394;291;64005;-61
2024/01/30 01:02:40;;;;;;;0.52;0.52;;;;;;;5.61;67.85;98101.72;29395;266;63009;-57
2024/01/30 01:03:11;;;;;;;0.60;0.60;;;;;;;5.62;67.71;98097.97;29395;259;63009;-57
2024/01/30 01:03:43;;;;;;;0.60;0.60;;;;;;;5.63;67.23;98099.59;29395;244;63009;-55
2024/01/30 01:04:15;;;;;;;0.60;0.60;;;;;;;5.65;67.38;98103.72;29395;284;63004;-57
2024/01/30 01:04:46;;;;;;;0.50;0.50;;;;;;;5.66;67.09;98099.16;29395;224;63008;-64
2024/01/30 01:05:18;;;;;;;0.60;0.60;;;;;;;5.67;67.25;98106.19;29395;229;63004;-57
2024/01/30 01:05:49;;;;;;;0.60;0.60;;;;;;;5.70;67.00;98100.31;29395;197;63009;-57
2024/01/30 01:06:20;;;;;;;0.55;0.55;;;;;;;5.71;67.17;98099.28;29395;198;63005;-57
2024/01/30 01:06:52;;;;;;;0.60;0.60;;;;;;;5.72;67.07;98099.03;29394;206;64009;-57
2024/01/30 01:07:25;;;;;;;0.57;0.57;;;;;;;5.74;67.18;98101.50;29394;199;64005;-56
2024/01/30 01:08:00;;;;;;;0.55;0.55;;;;;;;5.75;66.94;98105.84;29395;214;63009;-58
2024/01/30 01:08:31;;;;;;;0.60;0.60;;;;;;;5.76;66.99;98104.78;29395;217;63005;-57
2024/01/30 01:09:03;;;;;;;0.60;0.60;;;;;;;5.77;66.88;98103.75;29394;222;64009;-57
2024/01/30 01:09:35;;;;;;;0.50;0.50;;;;;;;5.79;66.47;98100.81;29394;204;64005;-56
2024/01/30 01:10:13;;;;;;;0.60;0.60;;;;;;;5.80;66.84;98105.97;29395;206;63009;-56
2024/01/30 01:10:46;;;;;;;0.60;0.60;;;;;;;5.79;66.91;98101.63;29395;221;63004;-62
2024/01/30 01:11:17;;;;;;;0.60;0.60;;;;;;;5.80;66.64;98105.97;29395;286;63009;-56
2024/01/30 01:11:48;;;;;;;0.60;0.60;;;;;;;5.80;66.84;98105.97;29395;208;63004;-57
2024/01/30 01:12:19;;;;;;;0.60;0.60;;;;;;;5.80;66.94;98103.28;29395;205;63008;-57
2024/01/30 01:12:51;;;;;;;0.50;0.50;;;;;;;5.80;66.72;98111.34;29395;267;63011;-56
2024/01/30 01:13:22;;;;;;;0.60;0.60;;;;;;;5.81;66.56;98104.09;29395;217;63009;-56
2024/01/30 01:13:54;;;;;;;0.57;0.57;;;;;;;5.82;66.82;98101.16;29395;255;63005;-57
2024/01/30 01:14:25;;;;;;;0.55;0.55;;;;;;;5.82;66.43;98101.16;29395;212;63009;-57
2024/01/30 01:14:56;;;;;;;0.60;0.60;;;;;;;5.84;66.53;98107.16;29394;231;64005;-57
2024/01/30 01:15:27;;;;;;;0.60;0.60;;;;;;;5.85;66.50;98107.97;29395;207;63009;-57
2024/01/30 01:15:59;;;;;;;0.60;0.60;;;;;;;5.85;66.70;98102.59;29395;251;63005;-56
2024/01/30 01:16:30;;;;;;;0.60;0.60;;;;;;;5.85;66.72;98103.41;29395;214;63009;-57
2024/01/30 01:17:02;;;;;;;0.60;0.60;;;;;;;5.86;66.62;98109.59;29395;205;63005;-56
2024/01/30 01:17:33;;;;;;;0.60;0.60;;;;;;;5.86;66.39;98101.53;29395;234;63009;-57
2024/01/30 01:18:04;;;;;;;0.57;0.57;;;;;;;5.85;66.68;98106.09;29395;210;63004;-57
2024/01/30 01:18:36;;;;;;;0.60;0.60;;;;;;;5.85;66.30;98098.00;29395;218;63009;-57
2024/01/30 01:19:07;;;;;;;0.60;0.60;;;;;;;5.84;66.42;98101.75;29395;206;63004;-57
2024/01/30 01:19:38;;;;;;;0.60;0.60;;;;;;;5.84;66.64;98107.16;29395;205;63009;-57
2024/01/30 01:20:11;;;;;;;0.60;0.60;;;;;;;5.84;66.65;98100.94;29394;205;64004;-57
2024/01/30 01:20:42;;;;;;;0.60;0.60;;;;;;;5.83;66.50;98099.31;29395;298;63009;-57
2024/01/30 01:21:14;;;;;;;0.60;0.60;;;;;;;5.83;66.77;98104.69;29395;240;63005;-57
2024/01/30 01:21:45;;;;;;;0.60;0.60;;;;;;;5.82;66.46;98109.25;29395;215;63009;-57
2024/01/30 01:22:18;;;;;;;0.60;0.60;;;;;;;5.83;66.56;98105.50;29395;307;63005;-57
2024/01/30 01:22:49;;;;;;;0.60;0.60;;;;;;;5.84;66.43;98101.75;29395;202;63009;-57
2024/01/30 01:23:20;;;;;;;0.60;0.60;;;;;;;5.85;66.51;98100.72;29394;216;64005;-57
2024/01/30 01:23:52;;;;;;;0.60;0.60;;;;;;;5.84;66.38;98101.75;29395;275;63009;-57
2024/01/30 01:24:23;;;;;;;0.50;0.50;;;;;;;5.83;66.31;98102.81;29395;278;63005;-57
2024/01/30 01:24:54;;;;;;;0.50;0.50;;;;;;;5.85;66.38;98097.19;29395;210;63009;-57
2024/01/30 01:25:25;;;;;;;0.50;0.50;;;;;;;5.83;66.50;98097.44;29395;203;63004;-57
2024/01/30 01:25:57;;;;;;;0.52;0.52;;;;;;;5.83;66.45;98094.72;29395;211;63009;-56
2024/01/30 01:26:28;;;;;;;0.60;0.60;;;;;;;5.83;66.64;98100.12;29395;272;63004;-63
2024/01/30 01:26:59;;;;;;;0.50;0.50;;;;;;;5.81;66.44;98096.84;29395;201;63009;-57
2024/01/30 01:27:32;;;;;;;0.60;0.60;;;;;;;5.81;66.64;98091.44;29395;206;63004;-61
2024/01/30 01:28:05;;;;;;;0.60;0.60;;;;;;;5.79;66.74;98096.25;29395;196;63008;-56
2024/01/30 01:28:40;;;;;;;0.60;0.60;;;;;;;5.79;66.61;98098.13;29394;294;64005;-57
2024/01/30 01:29:15;;;;;;;0.50;0.50;;;;;;;5.77;66.79;98098.34;29395;263;63009;-56
2024/01/30 01:29:48;;;;;;;0.60;0.60;;;;;;;5.76;67.12;98099.41;29395;219;63005;-57
2024/01/30 01:30:21;;;;;;;0.60;0.60;;;;;;;5.75;67.29;98100.44;29395;249;63009;-57
2024/01/30 01:30:52;;;;;;;0.50;0.50;;;;;;;5.74;67.08;98101.50;29395;207;63005;-57
2024/01/30 01:31:24;;;;;;;0.50;0.50;;;;;;;5.71;67.60;98101.97;29395;240;63009;-56
2024/01/30 01:31:56;;;;;;;0.60;0.60;;;;;;;5.69;67.47;98098.69;29395;290;63004;-57
2024/01/30 01:32:29;;;;;;;0.60;0.60;;;;;;;5.67;67.94;98100.78;29395;227;63009;-57
2024/01/30 01:33:06;;;;;;;0.52;0.52;;;;;;;5.64;68.49;98101.25;29395;197;63004;-56
2024/01/30 01:33:40;;;;;;;0.57;0.57;;;;;;;5.62;68.46;98104.16;29394;245;64009;-57
2024/01/30 01:34:15;;;;;;;0.60;0.60;;;;;;;5.61;68.21;98107.09;29395;236;63004;-57
2024/01/30 01:34:46;;;;;;;0.60;0.60;;;;;;;5.60;68.04;98105.44;29395;251;63004;-56
2024/01/30 01:35:17;;;;;;;0.60;0.60;;;;;;;5.59;68.14;98104.63;29395;238;63005;-56
2024/01/30 01:35:48;;;;;;;0.60;0.60;;;;;;;5.58;68.30;98102.16;29395;283;63009;-56
2024/01/30 01:36:20;;;;;;;0.60;0.60;;;;;;;5.57;68.55;98105.91;29395;255;63011;-57
2024/01/30 01:36:55;;;;;;;0.60;0.60;;;;;;;5.55;68.40;98102.63;29395;227;63009;-57
2024/01/30 01:37:26;;;;;;;0.60;0.60;;;;;;;5.53;68.70;98099.38;29395;202;63005;-64
2024/01/30 01:38:00;;;;;;;0.60;0.60;;;;;;;5.52;68.39;98100.44;29395;199;63009;-56
2024/01/30 01:38:31;;;;;;;0.60;0.60;;;;;;;5.51;68.73;98107.69;29394;202;64005;-57
2024/01/30 01:39:03;;;;;;;0.60;0.60;;;;;;;5.50;68.58;98105.22;29395;208;63009;-57
2024/01/30 01:39:35;;;;;;;0.60;0.60;;;;;;;5.48;68.99;98107.31;29395;216;63004;-62
2024/01/30 01:40:08;;;;;;;0.60;0.60;;;;;;;5.46;68.79;98104.84;29395;222;63009;-57
2024/01/30 01:40:39;;;;;;;0.60;0.60;;;;;;;5.45;69.31;98110.47;29395;290;63004;-57
2024/01/30 01:41:12;;;;;;;0.57;0.57;;;;;;;5.42;69.35;98098.28;29395;230;63009;-62
2024/01/30 01:41:47;;;;;;;0.60;0.60;;;;;;;5.41;69.54;98109.28;29395;265;63004;-56
2024/01/30 01:42:18;;;;;;;0.50;0.50;;;;;;;5.36;69.85;98109.97;29395;288;63008;-57
2024/01/30 01:42:53;;;;;;;0.55;0.55;;;;;;;5.34;69.90;98106.69;29395;210;63005;-57
2024/01/30 01:43:25;;;;;;;0.60;0.60;;;;;;;5.32;69.59;98106.91;29395;241;63009;-56
2024/01/30 01:43:56;;;;;;;0.60;0.60;;;;;;;5.30;70.11;98117.09;29394;234;64005;-57
2024/01/30 01:44:28;;;;;;;0.60;0.60;;;;;;;5.27;70.48;98116.72;29395;236;63009;-56
2024/01/30 01:45:04;;;;;;;0.52;0.52;;;;;;;5.24;70.76;98118.00;29395;261;63005;-57
2024/01/30 01:45:35;;;;;;;0.60;0.60;;;;;;;5.23;70.49;98119.03;29395;225;63009;-62
2024/01/30 01:46:08;;;;;;;0.60;0.60;;;;;;;5.20;71.06;98116.81;29395;218;63008;-56
2024/01/30 01:46:41;;;;;;;0.50;0.50;;;;;;;5.18;71.09;98121.62;29394;237;64009;-57
2024/01/30 01:47:12;;;;;;;0.60;0.60;;;;;;;5.15;71.83;98130.16;29395;280;63004;-56
2024/01/30 01:47:49;;;;;;;0.50;0.50;;;;;;;5.11;71.72;98123.56;29395;197;63009;-56
2024/01/30 01:48:21;;;;;;;0.50;0.50;;;;;;;5.08;72.17;98121.34;29395;223;63004;-56
2024/01/30 01:48:56;;;;;;;0.50;0.50;;;;;;;5.04;71.60;98130.91;29395;242;63009;-57
2024/01/30 01:49:34;;;;;;;0.60;0.60;;;;;;;5.00;71.40;98116.28;29438;218;64004;-62
2024/01/30 01:50:06;;;;;;;0.60;0.60;;;;;;;4.99;71.71;98123.53;29373;274;63009;-56
2024/01/30 01:50:37;;;;;;;0.57;0.57;;;;;;;4.98;71.45;98123.75;29395;197;63012;-57
2024/01/30 01:51:09;;;;;;;0.60;0.60;;;;;;;4.96;71.98;98125.84;29395;332;63021;-57
2024/01/30 01:51:42;;;;;;;1.95;1.85;;;;;;;4.95;72.39;98124.19;29394;215;64005;-57
2024/01/30 01:52:13;;;;;;;0.60;0.60;;;;;;;4.95;71.90;98118.81;29395;258;63009;-57
2024/01/30 01:52:49;;;;;;;1.25;1.25;;;;;;;4.93;72.12;98124.41;29395;204;63005;-57
2024/01/30 01:53:20;;;;;;;0.60;0.60;;;;;;;4.91;72.16;98117.63;29395;207;63005;-57
2024/01/30 01:53:52;;;;;;;0.60;0.60;;;;;;;4.90;72.02;98121.38;29395;271;63005;-56
2024/01/30 01:54:25;;;;;;;0.60;0.60;;;;;;;4.90;71.97;98126.75;29395;223;63009;-57
2024/01/30 01:54:56;;;;;;;0.52;0.52;;;;;;;4.89;71.91;98125.09;29394;226;63997;-57
2024/01/30 01:55:30;;;;;;;0.60;0.60;;;;;;;4.88;72.03;98121.59;29395;253;63009;-56
2024/01/30 01:56:03;;;;;;;0.60;0.60;;;;;;;4.88;72.31;98123.44;29395;255;63004;-58
2024/01/30 01:56:35;;;;;;;0.60;0.60;;;;;;;4.87;71.96;98122.62;29395;209;63026;-57
2024/01/30 01:57:07;;;;;;;0.60;0.60;;;;;;;4.86;72.51;98125.53;29395;196;63004;-57
2024/01/30 01:57:38;;;;;;;0.60;0.60;;;;;;;4.86;72.37;98133.63;29395;254;63009;-64
2024/01/30 01:58:12;;;;;;;0.60;0.60;;;;;;;4.84;73.42;98131.19;29395;234;63005;-56
2024/01/30 01:58:46;;;;;;;0.60;0.60;;;;;;;4.83;73.05;98126.84;29395;257;63009;-56
2024/01/30 01:59:19;;;;;;;0.50;0.50;;;;;;;4.82;73.11;98129.75;29395;258;63005;-63
2024/01/30 01:59:50;;;;;;;1.25;1.25;;;;;;;4.81;72.82;98125.44;29395;211;63009;-55
2024/01/30 02:00:22;;;;;;;0.60;0.60;;;;;;;4.81;72.69;98128.13;29394;210;64005;-57
2024/01/30 02:00:54;;;;;;;0.60;0.60;;;;;;;4.80;72.69;98129.16;29395;216;63009;-58
2024/01/30 02:01:27;;;;;;;1.12;1.12;;;;;;;4.79;73.19;98124.84;29395;253;63005;-56
2024/01/30 02:01:58;;;;;;;0.60;0.60;;;;;;;4.79;72.84;98124.84;29395;299;63009;-57
2024/01/30 02:02:35;;;;;;;0.60;0.60;;;;;;;4.80;73.22;98129.16;29395;257;63009;-57
2024/01/30 02:03:08;;;;;;;0.60;0.60;;;;;;;4.78;73.21;98128.56;29395;261;63009;-62
2024/01/30 02:03:41;;;;;;;0.60;0.60;;;;;;;4.77;73.41;98116.16;29395;227;63004;-57
2024/01/30 02:04:13;;;;;;;0.60;0.60;;;;;;;4.77;73.08;98117.00;29395;297;63009;-57
2024/01/30 02:04:45;;;;;;;0.50;0.50;;;;;;;4.77;73.36;98121.53;29395;223;63004;-56
2024/01/30 02:05:17;;;;;;;0.60;0.60;;;;;;;4.77;73.41;98118.84;29395;218;63009;-56
2024/01/30 02:05:51;;;;;;;0.60;0.60;;;;;;;4.78;73.61;98133.94;29394;207;64005;-56
2024/01/30 02:06:23;;;;;;;0.60;0.60;;;;;;;4.76;73.10;98123.41;29395;231;63009;-57
2024/01/30 02:06:54;;;;;;;0.60;0.60;;;;;;;4.77;73.52;98132.31;29395;229;63005;-57
2024/01/30 02:07:27;;;;;;;0.60;0.60;;;;;;;4.76;73.27;98115.34;29395;250;63009;-57
2024/01/30 02:07:59;;;;;;;0.52;0.52;;;;;;;4.77;73.44;98121.53;29395;216;63005;-57
2024/01/30 02:08:30;;;;;;;0.60;0.60;;;;;;;4.77;73.27;98121.53;29395;218;63009;-57
2024/01/30 02:09:02;;;;;;;0.60;0.60;;;;;;;4.77;73.28;98121.53;29395;249;63005;-56
2024/01/30 02:09:33;;;;;;;0.60;0.60;;;;;;;4.77;72.91;98119.69;29395;198;63015;-57
2024/01/30 02:10:05;;;;;;;0.55;0.55;;;;;;;4.79;73.07;98124.84;29395;198;63004;-57
2024/01/30 02:10:36;;;;;;;0.60;0.60;;;;;;;4.80;72.94;98121.09;29395;208;63009;-57
2024/01/30 02:11:12;;;;;;;0.60;0.60;;;;;;;4.81;72.85;98122.75;29394;241;64004;-56
2024/01/30 02:11:46;;;;;;;0.60;0.60;;;;;;;4.82;72.61;98117.13;29395;261;63009;-57
2024/01/30 02:12:17;;;;;;;0.60;0.60;;;;;;;4.83;72.61;98116.09;29395;248;63004;-57
2024/01/30 02:12:49;;;;;;;0.60;0.60;;;;;;;4.84;72.34;98116.91;29395;210;63009;-56
2024/01/30 02:13:22;;;;;;;0.60;0.60;;;;;;;4.85;72.48;98115.88;29395;295;63005;-57
2024/01/30 02:13:53;;;;;;;0.60;0.60;;;;;;;4.84;72.60;98115.03;29395;247;63009;-57
2024/01/30 02:14:24;;;;;;;0.60;0.60;;;;;;;4.83;72.61;98116.09;29395;202;63005;-56
2024/01/30 02:14:56;;;;;;;0.60;0.60;;;;;;;4.84;72.65;98111.53;29395;254;63009;-56
2024/01/30 02:15:29;;;;;;;0.60;0.60;;;;;;;4.83;72.55;98115.28;29395;209;63005;-56
2024/01/30 02:16:01;;;;;;;0.60;0.60;;;;;;;4.82;72.63;98119.81;29395;218;63009;-56
2024/01/30 02:16:32;;;;;;;0.60;0.60;;;;;;;4.81;72.41;98128.13;29394;207;64005;-56
2024/01/30 02:17:04;;;;;;;0.60;0.60;;;;;;;4.79;72.65;98122.16;29395;295;63009;-56
2024/01/30 02:17:35;;;;;;;0.60;0.60;;;;;;;4.79;72.75;98124.84;29395;262;63004;-63
2024/01/30 02:18:07;;;;;;;0.60;0.60;;;;;;;4.77;72.75;98121.53;29395;229;63018;-56
2024/01/30 02:18:43;;;;;;;0.60;0.60;;;;;;;4.77;73.13;98133.13;29395;311;63004;-56
2024/01/30 02:19:14;;;;;;;0.60;0.60;;;;;;;4.77;72.90;98126.94;29395;248;63009;-56
2024/01/30 02:19:45;;;;;;;0.60;0.60;;;;;;;4.77;73.26;98126.94;29395;241;63004;-57
2024/01/30 02:20:17;;;;;;;0.60;0.60;;;;;;;4.79;72.95;98127.53;29395;239;63009;-56
2024/01/30 02:20:48;;;;;;;0.60;0.60;;;;;;;4.81;72.94;98122.75;29395;199;63005;-57
2024/01/30 02:21:20;;;;;;;0.60;0.60;;;;;;;4.81;72.52;98128.13;29395;203;63009;-56
2024/01/30 02:21:53;;;;;;;0.50;0.50;;;;;;;4.80;72.40;98127.28;29394;284;64005;-57
2024/01/30 02:22:27;;;;;;;0.60;0.60;;;;;;;4.80;72.72;98127.28;29394;224;64009;-57
2024/01/30 02:23:01;;;;;;;0.60;0.60;;;;;;;4.81;72.58;98128.94;29395;294;63005;-62
2024/01/30 02:23:34;;;;;;;0.60;0.60;;;;;;;4.81;72.39;98128.13;29395;209;63009;-57
2024/01/30 02:24:06;;;;;;;0.60;0.60;;;;;;;4.80;72.65;98126.47;29395;202;63004;-56
2024/01/30 02:24:37;;;;;;;0.60;0.60;;;;;;;4.79;72.21;98131.03;29395;253;63009;-57
2024/01/30 02:25:08;;;;;;;0.60;0.60;;;;;;;4.78;72.43;98129.38;29395;248;63004;-57
2024/01/30 02:25:47;;;;;;;0.60;0.60;;;;;;;4.77;72.51;98127.75;29395;290;63009;-56
2024/01/30 02:26:19;;;;;;;0.50;0.50;;;;;;;4.76;72.57;98136.03;29395;244;63004;-57
2024/01/30 02:26:50;;;;;;;0.60;0.60;;;;;;;4.76;72.58;98130.66;29395;251;63008;-57
2024/01/30 02:27:23;;;;;;;0.60;0.60;;;;;;;4.76;72.95;98136.03;29395;250;63008;-56
2024/01/30 02:27:54;;;;;;;0.60;0.60;;;;;;;4.75;72.65;98135.22;29394;197;64009;-57
2024/01/30 02:28:26;;;;;;;0.60;0.60;;;;;;;4.74;72.53;98135.44;29395;313;63005;-63
2024/01/30 02:28:57;;;;;;;0.57;0.57;;;;;;;4.73;72.58;98142.69;29395;275;63009;-57
2024/01/30 02:29:28;;;;;;;0.57;0.57;;;;;;;4.70;72.77;98133.19;29395;222;63005;-57
2024/01/30 02:29:59;;;;;;;0.60;0.60;;;;;;;4.68;72.29;98140.66;29395;205;63009;-56
2024/01/30 02:30:31;;;;;;;0.60;0.60;;;;;;;4.67;72.82;98135.50;29395;218;63005;-57
2024/01/30 02:31:02;;;;;;;0.50;0.50;;;;;;;4.65;72.67;98135.72;29395;262;63026;-57
2024/01/30 02:31:33;;;;;;;0.60;0.60;;;;;;;4.65;72.95;98138.41;29395;216;63004;-62
2024/01/30 02:32:06;;;;;;;0.60;0.60;;;;;;;4.64;72.71;98139.47;29395;210;63009;-57
2024/01/30 02:32:37;;;;;;;0.60;0.60;;;;;;;4.64;73.09;98133.28;29395;220;63004;-57
2024/01/30 02:33:11;;;;;;;0.50;0.50;;;;;;;4.62;73.00;98136.19;29394;232;64009;-63
2024/01/30 02:33:42;;;;;;;0.60;0.60;;;;;;;4.61;73.11;98139.91;29395;290;63004;-57
2024/01/30 02:34:14;;;;;;;0.50;0.50;;;;;;;4.61;72.82;98134.53;29395;291;63008;-57
2024/01/30 02:34:45;;;;;;;0.60;0.60;;;;;;;4.60;73.05;98132.91;29395;268;63005;-57